Time;durP1;ratioP1;P1;durP2;ratioP2;P2;SDS_P1;SDS_P2;PMS_P1;PMS_P2;Temp;Humidity;BMP_temperature;BMP_pressure;BME280_temperature;BME280_humidity;BME280_pressure;Samples;Min_cycle;Max_cycle;Signal;HPM_P1;HPM_P2
2022/09/21 00:00:27;;;;;;;8.67;6.20;;;;;;;;;;4968717;28;20301;-81
2022/09/21 00:02:57;;;;;;;7.73;6.43;;;;;;;;;;4962799;28;20226;-81
2022/09/21 00:05:24;;;;;;;8.83;6.33;;;;;;;;;;4975145;28;20234;-81
2022/09/21 00:07:51;;;;;;;9.60;6.90;;;;;;;;;;4971212;28;20319;-81
2022/09/21 00:10:19;;;;;;;9.00;6.53;;;;;;;;;;4971388;28;20305;-82
2022/09/21 00:12:48;;;;;;;8.83;6.77;;;;;;;;;;4974694;28;20281;-81
2022/09/21 00:15:17;;;;;;;8.10;6.50;;;;;;;;;;4972786;28;20256;-82
2022/09/21 00:17:48;;;;;;;7.70;6.40;;;;;;;;;;4956003;28;20203;-82
2022/09/21 00:20:15;;;;;;;7.73;6.50;;;;;;;;;;4955875;28;20224;-81
2022/09/21 00:22:43;;;;;;;7.73;6.50;;;;;;;;;;4962770;28;20771;-82
2022/09/21 00:25:10;;;;;;;7.77;6.00;;;;;;;;;;4966617;28;20661;-81
2022/09/21 00:27:37;;;;;;;7.20;6.17;;;;;;;;;;4960932;28;20252;-82
2022/09/21 00:30:06;;;;;;;10.20;6.60;;;;;;;;;;4961222;28;20240;-82
2022/09/21 00:32:36;;;;;;;6.83;6.13;;;;;;;;;;4964551;28;20593;-82
2022/09/21 00:35:06;;;;;;;8.07;6.00;;;;;;;;;;4966138;28;20235;-82
2022/09/21 00:37:33;;;;;;;9.43;6.23;;;;;;;;;;4958125;28;20208;-81
2022/09/21 00:40:01;;;;;;;7.70;6.17;;;;;;;;;;4966173;28;20303;-82
2022/09/21 00:42:29;;;;;;;7.13;6.20;;;;;;;;;;4966132;28;20269;-82
2022/09/21 00:44:56;;;;;;;7.87;6.23;;;;;;;;;;4963271;28;20296;-82
2022/09/21 00:47:27;;;;;;;7.00;6.17;;;;;;;;;;4962408;28;20293;-82
2022/09/21 00:49:56;;;;;;;7.97;6.53;;;;;;;;;;4963250;28;20703;-81
2022/09/21 00:52:24;;;;;;;7.10;6.40;;;;;;;;;;4967647;28;20284;-82
2022/09/21 00:54:53;;;;;;;9.73;6.50;;;;;;;;;;4965320;28;20268;-82
2022/09/21 00:57:22;;;;;;;8.23;6.67;;;;;;;;;;4962283;28;20254;-81
2022/09/21 00:59:50;;;;;;;7.50;6.47;;;;;;;;;;4963149;28;20289;-81
2022/09/21 01:02:18;;;;;;;9.83;6.70;;;;;;;;;;4964879;28;20324;-81
2022/09/21 01:04:46;;;;;;;10.73;6.60;;;;;;;;;;4965717;28;20279;-82
2022/09/21 01:07:17;;;;;;;9.07;6.90;;;;;;;;;;4961221;28;20271;-81
2022/09/21 01:09:45;;;;;;;7.97;6.77;;;;;;;;;;4965936;28;20632;-82
2022/09/21 01:12:21;;;;;;;9.13;6.30;;;;;;;;;;4958914;28;20300;-82
2022/09/21 01:15:03;;;;;;;10.03;7.13;;;;;;;;;;4967426;28;20237;-81
2022/09/21 01:17:36;;;;;;;8.43;6.40;;;;;;;;;;4962046;28;20303;-81
2022/09/21 01:20:30;;;;;;;7.43;6.37;;;;;;;;;;4962558;28;20284;-82
2022/09/21 01:23:14;;;;;;;8.87;6.70;;;;;;;;;;4945174;28;20201;-82
2022/09/21 01:25:50;;;;;;;9.00;6.47;;;;;;;;;;4962265;28;20709;-81
2022/09/21 01:28:29;;;;;;;6.53;5.90;;;;;;;;;;4962231;28;20220;-81
2022/09/21 01:31:04;;;;;;;8.83;6.77;;;;;;;;;;4964666;28;20210;-81
2022/09/21 01:33:35;;;;;;;8.87;6.63;;;;;;;;;;4962561;28;20324;-81
2022/09/21 01:36:04;;;;;;;9.63;7.10;;;;;;;;;;4965444;28;20257;-82
2022/09/21 01:38:32;;;;;;;8.13;6.67;;;;;;;;;;4964851;28;20249;-82
2022/09/21 01:41:02;;;;;;;9.17;7.00;;;;;;;;;;4962476;28;20296;-81
2022/09/21 01:43:32;;;;;;;8.83;6.70;;;;;;;;;;4961942;28;20250;-81
2022/09/21 01:46:02;;;;;;;8.23;6.57;;;;;;;;;;4964744;28;20751;-81
2022/09/21 01:48:34;;;;;;;9.13;6.20;;;;;;;;;;4963606;28;20218;-81
2022/09/21 01:51:02;;;;;;;6.87;6.17;;;;;;;;;;4962343;28;20225;-82
2022/09/21 01:53:32;;;;;;;8.67;6.40;;;;;;;;;;4965224;28;20216;-81
2022/09/21 01:56:01;;;;;;;9.97;7.00;;;;;;;;;;4970229;28;20304;-82
2022/09/21 01:58:32;;;;;;;10.33;6.50;;;;;;;;;;4966737;28;20734;-82
2022/09/21 02:01:01;;;;;;;9.77;7.00;;;;;;;;;;4965445;28;20203;-81
2022/09/21 02:03:30;;;;;;;8.67;6.63;;;;;;;;;;4963499;28;20220;-82
2022/09/21 02:05:58;;;;;;;9.87;6.97;;;;;;;;;;4957427;28;20237;-81
2022/09/21 02:08:26;;;;;;;8.40;7.00;;;;;;;;;;4969057;28;20270;-82
2022/09/21 02:10:54;;;;;;;10.47;7.27;;;;;;;;;;4962053;28;20207;-82
2022/09/21 02:13:24;;;;;;;7.87;6.83;;;;;;;;;;4964190;28;20647;-81
2022/09/21 02:15:58;;;;;;;8.83;7.60;;;;;;;;;;4964483;28;20232;-82
2022/09/21 02:18:34;;;;;;;8.10;6.83;;;;;;;;;;4961705;28;20221;-82
2022/09/21 02:21:03;;;;;;;8.73;6.97;;;;;;;;;;4964854;28;20217;-81
2022/09/21 02:23:37;;;;;;;9.70;7.37;;;;;;;;;;4959946;28;20219;-82
2022/09/21 02:26:06;;;;;;;7.73;6.70;;;;;;;;;;4966513;28;20638;-81
2022/09/21 02:28:39;;;;;;;12.20;7.70;;;;;;;;;;4960650;28;20932;-82
2022/09/21 02:31:12;;;;;;;12.17;7.80;;;;;;;;;;4961751;28;20199;-82
2022/09/21 02:33:43;;;;;;;9.60;7.63;;;;;;;;;;4964172;28;20241;-82
2022/09/21 02:36:12;;;;;;;9.90;7.40;;;;;;;;;;4964889;28;20214;-81
2022/09/21 02:38:45;;;;;;;8.37;7.27;;;;;;;;;;4965674;28;20238;-82
2022/09/21 02:41:15;;;;;;;10.33;6.97;;;;;;;;;;4966960;28;20199;-82
2022/09/21 02:43:45;;;;;;;8.47;7.17;;;;;;;;;;4970345;28;20670;-82
2022/09/21 02:46:15;;;;;;;8.60;7.27;;;;;;;;;;4962120;28;20555;-82
2022/09/21 02:48:47;;;;;;;9.37;7.40;;;;;;;;;;4967742;28;20294;-82
2022/09/21 02:51:16;;;;;;;11.00;7.33;;;;;;;;;;4969611;28;20294;-82
2022/09/21 02:53:44;;;;;;;9.43;7.33;;;;;;;;;;4964817;28;20286;-82
2022/09/21 02:56:14;;;;;;;9.57;7.70;;;;;;;;;;4964882;28;20258;-82
2022/09/21 02:58:44;;;;;;;8.43;7.30;;;;;;;;;;4965594;28;20199;-82
2022/09/21 03:01:12;;;;;;;9.10;7.73;;;;;;;;;;4967212;28;20226;-82
2022/09/21 03:03:39;;;;;;;10.00;7.20;;;;;;;;;;4964941;28;20287;-82
2022/09/21 03:06:08;;;;;;;11.13;8.03;;;;;;;;;;4971829;28;20287;-82
2022/09/21 03:08:35;;;;;;;10.67;7.90;;;;;;;;;;4962578;28;20309;-82
2022/09/21 03:11:02;;;;;;;11.67;8.03;;;;;;;;;;4965954;28;20212;-82
2022/09/21 03:13:30;;;;;;;10.37;7.87;;;;;;;;;;4974750;28;20706;-81
2022/09/21 03:16:01;;;;;;;9.03;7.73;;;;;;;;;;4975037;28;20203;-82
2022/09/21 03:18:28;;;;;;;10.33;8.03;;;;;;;;;;4965526;28;20227;-82
2022/09/21 03:20:55;;;;;;;10.77;8.30;;;;;;;;;;4967886;28;20282;-82
2022/09/21 03:23:24;;;;;;;8.73;7.83;;;;;;;;;;4966334;28;20234;-81
2022/09/21 03:25:53;;;;;;;10.40;8.03;;;;;;;;;;4961875;28;20638;-82
2022/09/21 03:28:21;;;;;;;9.23;7.80;;;;;;;;;;4966959;28;20213;-82
2022/09/21 03:30:49;;;;;;;8.90;8.00;;;;;;;;;;4971990;28;20290;-82
2022/09/21 03:33:16;;;;;;;10.80;8.33;;;;;;;;;;4964497;28;20210;-82
2022/09/21 03:35:43;;;;;;;9.57;8.13;;;;;;;;;;4966061;28;20236;-82
2022/09/21 03:38:10;;;;;;;12.17;8.20;;;;;;;;;;4974335;28;20261;-82
2022/09/21 03:40:39;;;;;;;9.77;8.07;;;;;;;;;;4966299;28;20226;-82
2022/09/21 03:43:06;;;;;;;11.53;8.00;;;;;;;;;;4969180;28;20285;-82
2022/09/21 03:45:33;;;;;;;10.47;8.07;;;;;;;;;;4964494;28;20247;-83
2022/09/21 03:48:01;;;;;;;11.37;8.43;;;;;;;;;;4966435;28;20283;-82
2022/09/21 03:50:29;;;;;;;10.50;8.13;;;;;;;;;;4966503;28;20228;-80
2022/09/21 03:52:57;;;;;;;9.83;8.07;;;;;;;;;;4964957;28;20290;-80
2022/09/21 03:55:26;;;;;;;10.77;8.20;;;;;;;;;;4969579;28;20277;-79
2022/09/21 03:57:55;;;;;;;13.23;8.47;;;;;;;;;;4965874;28;20231;-79
2022/09/21 04:00:24;;;;;;;11.57;8.50;;;;;;;;;;4966023;28;20785;-79
2022/09/21 04:02:51;;;;;;;8.90;7.80;;;;;;;;;;4967025;28;20747;-79
2022/09/21 04:05:18;;;;;;;11.63;8.17;;;;;;;;;;4958060;28;20236;-79
2022/09/21 04:07:46;;;;;;;12.90;8.47;;;;;;;;;;4970528;28;20316;-79
2022/09/21 04:10:14;;;;;;;12.27;8.50;;;;;;;;;;4974921;28;20285;-79
2022/09/21 04:12:42;;;;;;;10.17;8.13;;;;;;;;;;4974736;28;20726;-79
2022/09/21 04:15:12;;;;;;;8.80;7.90;;;;;;;;;;4974673;28;20677;-79
2022/09/21 04:17:39;;;;;;;9.93;8.37;;;;;;;;;;4970943;28;20215;-79
2022/09/21 04:20:07;;;;;;;10.67;8.57;;;;;;;;;;4960612;28;20287;-79
2022/09/21 04:22:35;;;;;;;8.87;7.97;;;;;;;;;;4955416;28;20234;-79
2022/09/21 04:25:03;;;;;;;10.20;8.67;;;;;;;;;;4955836;28;20677;-79
2022/09/21 04:27:30;;;;;;;9.93;8.53;;;;;;;;;;4954969;28;20245;-79
2022/09/21 04:29:58;;;;;;;10.50;8.23;;;;;;;;;;4959905;28;20634;-79
2022/09/21 04:32:26;;;;;;;10.77;8.80;;;;;;;;;;4966219;28;20207;-79
2022/09/21 04:34:54;;;;;;;10.27;8.80;;;;;;;;;;4955686;28;20290;-79
2022/09/21 04:37:24;;;;;;;11.60;8.77;;;;;;;;;;4954447;28;20318;-78
2022/09/21 04:39:51;;;;;;;12.27;8.70;;;;;;;;;;4971682;28;20206;-78
2022/09/21 04:42:18;;;;;;;10.90;8.53;;;;;;;;;;4967882;28;20234;-79
2022/09/21 04:44:45;;;;;;;9.80;8.40;;;;;;;;;;4964786;28;20231;-79
2022/09/21 04:47:13;;;;;;;11.47;8.77;;;;;;;;;;4966213;28;20285;-79
2022/09/21 04:49:41;;;;;;;12.70;8.60;;;;;;;;;;4962823;28;20207;-79
2022/09/21 04:52:09;;;;;;;12.93;8.53;;;;;;;;;;4966208;28;20238;-79
2022/09/21 04:54:36;;;;;;;12.97;9.10;;;;;;;;;;4965654;28;20235;-79
2022/09/21 04:57:03;;;;;;;10.50;9.10;;;;;;;;;;4963033;28;20318;-79
2022/09/21 04:59:30;;;;;;;11.63;9.23;;;;;;;;;;4963166;28;20245;-79
2022/09/21 05:01:57;;;;;;;11.47;9.03;;;;;;;;;;4963311;28;20258;-79
2022/09/21 05:04:25;;;;;;;10.20;9.10;;;;;;;;;;4972263;28;20289;-79
2022/09/21 05:06:53;;;;;;;11.67;9.53;;;;;;;;;;4964317;28;20391;-79
2022/09/21 05:12:05;;;;;;;12.20;8.50;;;;;;;;;;4968212;28;20278;-80
2022/09/21 05:14:32;;;;;;;10.50;9.00;;;;;;;;;;4974181;28;20194;-80
2022/09/21 05:17:01;;;;;;;11.33;8.73;;;;;;;;;;4973886;28;20309;-79
2022/09/21 05:19:28;;;;;;;11.27;9.13;;;;;;;;;;4974115;28;20573;-80
2022/09/21 05:21:56;;;;;;;11.27;8.40;;;;;;;;;;4972136;28;20662;-79
2022/09/21 05:24:23;;;;;;;11.97;9.00;;;;;;;;;;4970063;28;20289;-80
2022/09/21 05:26:51;;;;;;;10.50;9.10;;;;;;;;;;4963803;28;20718;-81
2022/09/21 05:29:18;;;;;;;10.77;9.33;;;;;;;;;;4973792;28;20333;-80
2022/09/21 05:31:48;;;;;;;11.90;9.93;;;;;;;;;;4962190;28;20286;-81
2022/09/21 05:34:21;;;;;;;13.20;9.93;;;;;;;;;;4954509;28;20246;-80
2022/09/21 05:36:50;;;;;;;10.73;9.47;;;;;;;;;;4961635;28;20233;-80
2022/09/21 05:39:19;;;;;;;11.13;9.47;;;;;;;;;;4969900;28;20206;-79
2022/09/21 05:41:47;;;;;;;13.47;10.03;;;;;;;;;;4968270;28;20765;-80
2022/09/21 05:44:14;;;;;;;11.50;9.60;;;;;;;;;;4972381;28;20319;-80
2022/09/21 05:46:43;;;;;;;12.70;9.47;;;;;;;;;;4966522;28;20650;-80
2022/09/21 05:49:16;;;;;;;11.67;9.30;;;;;;;;;;4965207;28;20237;-81
2022/09/21 05:51:46;;;;;;;11.63;9.50;;;;;;;;;;4972969;28;20242;-80
2022/09/21 05:54:17;;;;;;;11.27;9.20;;;;;;;;;;4954536;28;20254;-80
2022/09/21 05:56:49;;;;;;;12.00;9.83;;;;;;;;;;4964387;28;20294;-80
2022/09/21 05:59:25;;;;;;;14.83;10.03;;;;;;;;;;4973743;28;20365;-80
2022/09/21 06:01:58;;;;;;;13.73;9.67;;;;;;;;;;4973420;28;20641;-81
2022/09/21 06:04:26;;;;;;;11.40;9.30;;;;;;;;;;4973941;28;20289;-80
2022/09/21 06:06:53;;;;;;;12.63;9.67;;;;;;;;;;4972540;28;20692;-81
2022/09/21 06:09:20;;;;;;;12.07;9.70;;;;;;;;;;4973571;28;20238;-81
2022/09/21 06:11:49;;;;;;;11.47;9.40;;;;;;;;;;4969496;28;20230;-80
2022/09/21 06:14:23;;;;;;;12.03;9.27;;;;;;;;;;4953813;28;20687;-81
2022/09/21 06:16:50;;;;;;;14.47;9.33;;;;;;;;;;4954128;28;20226;-80
2022/09/21 06:19:17;;;;;;;11.50;9.40;;;;;;;;;;4955125;28;20291;-81
2022/09/21 06:21:45;;;;;;;10.80;9.13;;;;;;;;;;4957853;28;20289;-81
2022/09/21 06:24:12;;;;;;;14.33;9.90;;;;;;;;;;4957951;28;20266;-80
2022/09/21 06:26:39;;;;;;;11.67;8.83;;;;;;;;;;4960234;28;20249;-80
2022/09/21 06:29:08;;;;;;;11.27;9.20;;;;;;;;;;4977337;28;20241;-80
2022/09/21 06:31:38;;;;;;;12.20;9.13;;;;;;;;;;4976998;28;20709;-80
2022/09/21 06:34:08;;;;;;;11.70;9.80;;;;;;;;;;4977002;28;20249;-80
2022/09/21 06:36:35;;;;;;;12.10;9.10;;;;;;;;;;4976842;28;20240;-80
2022/09/21 06:39:02;;;;;;;12.40;9.33;;;;;;;;;;4977089;28;20322;-80
2022/09/21 06:41:29;;;;;;;11.80;9.50;;;;;;;;;;4972770;28;20301;-80
2022/09/21 06:43:57;;;;;;;12.37;9.50;;;;;;;;;;4976634;28;20651;-81
2022/09/21 06:46:25;;;;;;;10.23;9.13;;;;;;;;;;4976859;28;20646;-81
2022/09/21 06:48:53;;;;;;;9.77;8.60;;;;;;;;;;4977221;28;20237;-81
2022/09/21 06:51:20;;;;;;;9.87;7.83;;;;;;;;;;4976819;28;20210;-81
2022/09/21 06:53:48;;;;;;;8.07;6.57;;;;;;;;;;4976676;28;20678;-81
2022/09/21 06:56:15;;;;;;;8.83;7.07;;;;;;;;;;4976862;28;20241;-81
2022/09/21 06:58:42;;;;;;;6.90;6.20;;;;;;;;;;4976239;28;20230;-81
2022/09/21 07:01:10;;;;;;;8.07;5.70;;;;;;;;;;4976447;28;20230;-81
2022/09/21 07:03:39;;;;;;;7.60;6.00;;;;;;;;;;4977011;28;20234;-81
2022/09/21 07:06:07;;;;;;;7.60;5.60;;;;;;;;;;4976605;28;20253;-81
2022/09/21 07:08:35;;;;;;;7.57;5.97;;;;;;;;;;4976424;28;20234;-82
2022/09/21 07:11:02;;;;;;;7.43;5.93;;;;;;;;;;4977054;28;20309;-82
2022/09/21 07:13:30;;;;;;;5.63;5.13;;;;;;;;;;4976733;28;20293;-82
2022/09/21 07:15:57;;;;;;;6.43;4.95;;;;;;;;;;4976453;28;20682;-82
2022/09/21 07:18:24;;;;;;;7.45;5.20;;;;;;;;;;4974255;28;20310;-82
2022/09/21 07:20:53;;;;;;;7.43;4.65;;;;;;;;;;4973751;28;20630;-82
2022/09/21 07:23:21;;;;;;;5.28;4.65;;;;;;;;;;4956787;28;20219;-82
2022/09/21 07:25:51;;;;;;;5.88;4.57;;;;;;;;;;4956922;28;20203;-82
2022/09/21 07:28:18;;;;;;;5.70;4.15;;;;;;;;;;4956684;28;20538;-82
2022/09/21 07:30:46;;;;;;;5.03;4.10;;;;;;;;;;4956014;28;20203;-82
2022/09/21 07:33:13;;;;;;;4.30;3.72;;;;;;;;;;4974003;28;20654;-82
2022/09/21 07:35:40;;;;;;;4.22;3.83;;;;;;;;;;4975896;28;20258;-82
2022/09/21 07:38:08;;;;;;;5.50;4.10;;;;;;;;;;4976315;28;20273;-82
2022/09/21 07:40:36;;;;;;;7.18;4.00;;;;;;;;;;4975940;28;20631;-82
2022/09/21 07:43:03;;;;;;;4.10;3.80;;;;;;;;;;4975915;28;20301;-82
2022/09/21 07:45:30;;;;;;;4.65;4.05;;;;;;;;;;4976020;28;20206;-82
2022/09/21 07:48:02;;;;;;;6.03;4.00;;;;;;;;;;4976013;28;20210;-82
2022/09/21 07:50:29;;;;;;;4.28;3.60;;;;;;;;;;4975148;28;20680;-82
2022/09/21 07:52:56;;;;;;;5.63;3.80;;;;;;;;;;4975846;28;20579;-82
2022/09/21 07:55:25;;;;;;;5.28;3.38;;;;;;;;;;4976240;28;20309;-82
2022/09/21 08:00:49;;;;;;;7.50;3.17;;;;;;;;;;4934916;29;20204;-82
2022/09/21 08:03:16;;;;;;;4.28;3.03;;;;;;;;;;4934770;29;20204;-80
2022/09/21 08:05:43;;;;;;;4.53;2.92;;;;;;;;;;4934559;29;20302;-82
2022/09/21 08:08:10;;;;;;;3.60;2.80;;;;;;;;;;4934736;29;20271;-82
2022/09/21 08:10:39;;;;;;;4.85;2.70;;;;;;;;;;4934488;29;20604;-83
2022/09/21 08:13:06;;;;;;;4.78;2.50;;;;;;;;;;4934964;29;20236;-83
2022/09/21 08:15:34;;;;;;;3.53;2.83;;;;;;;;;;4934851;29;20708;-83
2022/09/21 08:18:01;;;;;;;4.55;2.63;;;;;;;;;;4934144;29;20224;-82
2022/09/21 08:20:29;;;;;;;3.25;2.80;;;;;;;;;;4934413;29;20239;-83
2022/09/21 08:22:56;;;;;;;4.18;2.50;;;;;;;;;;4934430;29;20206;-82
2022/09/21 08:25:23;;;;;;;3.83;2.58;;;;;;;;;;4934260;29;20294;-82
2022/09/21 08:27:52;;;;;;;3.92;2.60;;;;;;;;;;4934393;29;20227;-80
2022/09/21 08:30:20;;;;;;;4.80;2.33;;;;;;;;;;4934639;29;20243;-80
2022/09/21 08:32:47;;;;;;;5.78;2.40;;;;;;;;;;4933954;29;20240;-82
2022/09/21 08:35:14;;;;;;;7.10;2.10;;;;;;;;;;4958632;28;20234;-80
2022/09/21 08:37:41;;;;;;;3.25;1.88;;;;;;;;;;4975025;28;20238;-83
2022/09/21 08:40:12;;;;;;;5.15;2.28;;;;;;;;;;4975112;28;20234;-82
2022/09/21 08:42:41;;;;;;;3.13;1.98;;;;;;;;;;4974708;28;20300;-82
2022/09/21 08:45:12;;;;;;;3.42;2.00;;;;;;;;;;4974368;28;20570;-82
2022/09/21 08:47:43;;;;;;;4.55;2.25;;;;;;;;;;4974300;28;20630;-82
2022/09/21 08:50:20;;;;;;;4.25;1.73;;;;;;;;;;4974093;28;20294;-82
2022/09/21 08:52:48;;;;;;;4.93;2.00;;;;;;;;;;4974330;28;20233;-82
2022/09/21 08:55:18;;;;;;;2.88;1.88;;;;;;;;;;4972829;28;20266;-82
2022/09/21 08:57:45;;;;;;;4.40;1.90;;;;;;;;;;4961448;28;20367;-82
2022/09/21 09:00:16;;;;;;;2.63;1.90;;;;;;;;;;4974200;28;20241;-82
2022/09/21 09:02:50;;;;;;;4.95;1.80;;;;;;;;;;4974082;28;20234;-82
2022/09/21 09:05:24;;;;;;;4.57;2.00;;;;;;;;;;4974205;28;20689;-82
2022/09/21 09:07:58;;;;;;;5.18;1.70;;;;;;;;;;4974035;28;20247;-82
2022/09/21 09:10:33;;;;;;;3.92;1.70;;;;;;;;;;4974060;28;20292;-82
2022/09/21 09:13:07;;;;;;;3.88;1.83;;;;;;;;;;4973732;28;20281;-82
2022/09/21 09:15:47;;;;;;;2.40;1.48;;;;;;;;;;4974192;28;20288;-82
2022/09/21 09:18:20;;;;;;;5.13;1.77;;;;;;;;;;4974300;28;20317;-82
2022/09/21 09:20:48;;;;;;;3.35;1.45;;;;;;;;;;4974312;28;20281;-82
2022/09/21 09:23:21;;;;;;;5.18;1.60;;;;;;;;;;4961448;28;20235;-82
2022/09/21 09:25:50;;;;;;;3.42;1.58;;;;;;;;;;4955216;28;20207;-82
2022/09/21 09:28:24;;;;;;;2.70;1.40;;;;;;;;;;4961424;28;20631;-82
2022/09/21 09:30:57;;;;;;;2.38;1.30;;;;;;;;;;4973641;28;20289;-82
2022/09/21 09:33:26;;;;;;;4.22;1.45;;;;;;;;;;4973682;28;20670;-82
2022/09/21 09:35:56;;;;;;;2.42;1.17;;;;;;;;;;4974308;28;20198;-82
2022/09/21 09:38:27;;;;;;;3.08;1.40;;;;;;;;;;4973998;28;20230;-82
2022/09/21 09:41:06;;;;;;;4.18;1.23;;;;;;;;;;4954592;29;20293;-82
2022/09/21 09:43:40;;;;;;;1.80;1.17;;;;;;;;;;4954742;28;20293;-82
2022/09/21 09:46:13;;;;;;;2.22;1.27;;;;;;;;;;4954719;28;20399;-82
2022/09/21 09:48:55;;;;;;;4.35;1.40;;;;;;;;;;4957510;28;20226;-82
2022/09/21 09:51:22;;;;;;;3.35;1.20;;;;;;;;;;4972825;28;20285;-82
2022/09/21 09:53:50;;;;;;;3.38;1.40;;;;;;;;;;4973363;28;20242;-82
2022/09/21 09:56:20;;;;;;;2.38;1.17;;;;;;;;;;4973714;28;20681;-82
2022/09/21 09:58:48;;;;;;;5.10;1.30;;;;;;;;;;4973568;28;20269;-82
2022/09/21 10:01:34;;;;;;;2.45;1.50;;;;;;;;;;4972359;28;20238;-82
2022/09/21 10:04:07;;;;;;;2.70;1.35;;;;;;;;;;4974101;28;20229;-82
2022/09/21 10:06:35;;;;;;;2.35;1.38;;;;;;;;;;4972557;28;20212;-82
2022/09/21 10:09:02;;;;;;;4.07;1.20;;;;;;;;;;4954170;28;20321;-82
2022/09/21 10:11:37;;;;;;;2.65;1.23;;;;;;;;;;4954509;28;20254;-82
2022/09/21 10:14:08;;;;;;;3.30;1.27;;;;;;;;;;4954153;28;20282;-82
2022/09/21 10:16:41;;;;;;;2.50;1.10;;;;;;;;;;4954378;28;20234;-82
2022/09/21 10:19:15;;;;;;;3.72;1.30;;;;;;;;;;4954043;28;20227;-82
2022/09/21 10:21:44;;;;;;;4.57;1.30;;;;;;;;;;4957058;28;20285;-82
2022/09/21 10:24:16;;;;;;;2.13;1.33;;;;;;;;;;4973692;28;20289;-82
2022/09/21 10:26:45;;;;;;;3.58;1.48;;;;;;;;;;4973094;28;20534;-81
2022/09/21 10:29:30;;;;;;;2.50;1.23;;;;;;;;;;4973572;28;20290;-82
2022/09/21 10:31:58;;;;;;;2.22;1.23;;;;;;;;;;4972926;28;20313;-82
2022/09/21 10:34:29;;;;;;;3.10;1.35;;;;;;;;;;4968521;28;20290;-82
2022/09/21 10:36:57;;;;;;;3.53;1.20;;;;;;;;;;4954182;28;20207;-82
2022/09/21 10:39:25;;;;;;;4.35;1.40;;;;;;;;;;4954019;28;20266;-82
2022/09/21 10:41:54;;;;;;;3.47;1.05;;;;;;;;;;4957507;28;20241;-80
2022/09/21 10:44:24;;;;;;;2.95;1.25;;;;;;;;;;4973299;28;20633;-81
2022/09/21 10:46:51;;;;;;;2.13;1.17;;;;;;;;;;4960100;28;20286;-82
2022/09/21 10:49:21;;;;;;;3.53;1.27;;;;;;;;;;4960619;28;20209;-82
2022/09/21 10:51:51;;;;;;;3.38;1.10;;;;;;;;;;4973351;28;20289;-82
2022/09/21 10:54:23;;;;;;;3.03;1.25;;;;;;;;;;4971576;28;20199;-83
2022/09/21 10:56:52;;;;;;;3.08;1.00;;;;;;;;;;4961363;28;20203;-80
2022/09/21 10:59:24;;;;;;;4.15;1.20;;;;;;;;;;4974068;28;20680;-84
2022/09/21 11:01:52;;;;;;;3.33;0.95;;;;;;;;;;4960478;28;20289;-81
2022/09/21 11:04:30;;;;;;;1.60;1.00;;;;;;;;;;4970928;28;20210;-81
2022/09/21 11:07:02;;;;;;;3.20;1.08;;;;;;;;;;4970498;28;20318;-82
2022/09/21 11:09:32;;;;;;;2.88;1.10;;;;;;;;;;4972841;28;20199;-80
2022/09/21 11:12:03;;;;;;;1.70;0.90;;;;;;;;;;4975202;28;20701;-81
2022/09/21 11:14:37;;;;;;;2.05;0.90;;;;;;;;;;4967830;28;20218;-82
2022/09/21 11:17:08;;;;;;;2.00;0.80;;;;;;;;;;4971339;28;20234;-80
2022/09/21 11:19:38;;;;;;;1.83;0.80;;;;;;;;;;4970794;28;20349;-80
2022/09/21 11:22:09;;;;;;;1.73;0.80;;;;;;;;;;4968249;28;20969;-80
2022/09/21 11:24:41;;;;;;;2.33;0.82;;;;;;;;;;4965344;28;20202;-80
2022/09/21 11:27:11;;;;;;;1.58;0.90;;;;;;;;;;4968164;28;20206;-80
2022/09/21 11:29:41;;;;;;;2.95;0.90;;;;;;;;;;4955090;28;20286;-79
2022/09/21 11:32:19;;;;;;;3.47;0.68;;;;;;;;;;4971990;28;20210;-80
2022/09/21 11:35:01;;;;;;;1.38;0.73;;;;;;;;;;4966681;28;20644;-80
2022/09/21 11:37:37;;;;;;;1.33;0.75;;;;;;;;;;4962542;28;20238;-80
2022/09/21 11:40:15;;;;;;;2.65;0.75;;;;;;;;;;4963207;28;20732;-79
2022/09/21 11:42:49;;;;;;;1.58;0.70;;;;;;;;;;4963919;28;20264;-81
2022/09/21 11:45:24;;;;;;;1.38;0.60;;;;;;;;;;4966829;28;20647;-81
2022/09/21 11:47:59;;;;;;;1.58;0.60;;;;;;;;;;4967331;28;20210;-81
2022/09/21 11:50:35;;;;;;;2.30;0.52;;;;;;;;;;4975183;28;20226;-81
2022/09/21 11:53:12;;;;;;;1.20;0.60;;;;;;;;;;4971017;28;20584;-81
2022/09/21 11:55:54;;;;;;;1.30;0.65;;;;;;;;;;4962941;28;20221;-81
2022/09/21 11:58:26;;;;;;;2.53;0.60;;;;;;;;;;4968095;28;20205;-81
2022/09/21 12:00:58;;;;;;;1.20;0.60;;;;;;;;;;4973477;28;20306;-81
2022/09/21 12:03:38;;;;;;;2.00;0.60;;;;;;;;;;4971525;28;20234;-80
2022/09/21 12:06:11;;;;;;;1.05;0.60;;;;;;;;;;4964575;28;20687;-81
2022/09/21 12:09:03;;;;;;;2.45;0.65;;;;;;;;;;4968460;28;20248;-81
2022/09/21 12:11:33;;;;;;;1.30;0.68;;;;;;;;;;4963594;28;20923;-84
2022/09/21 12:14:03;;;;;;;1.73;0.55;;;;;;;;;;4961464;28;20285;-84
2022/09/21 12:16:36;;;;;;;2.60;0.60;;;;;;;;;;4967285;28;20233;-83
2022/09/21 12:19:05;;;;;;;1.13;0.50;;;;;;;;;;4963150;28;20281;-83
2022/09/21 12:21:35;;;;;;;2.20;0.50;;;;;;;;;;4968373;28;20230;-83
2022/09/21 12:24:05;;;;;;;1.40;0.40;;;;;;;;;;4965670;28;20257;-83
2022/09/21 12:26:37;;;;;;;0.73;0.40;;;;;;;;;;4970322;28;20717;-85
2022/09/21 12:29:07;;;;;;;1.13;0.50;;;;;;;;;;4963522;28;20234;-85
2022/09/21 12:31:38;;;;;;;1.52;0.30;;;;;;;;;;4960297;28;20250;-84
2022/09/21 12:34:06;;;;;;;1.25;0.45;;;;;;;;;;4961504;28;20236;-84
2022/09/21 12:36:36;;;;;;;1.83;0.50;;;;;;;;;;4967228;28;20288;-85
2022/09/21 12:39:08;;;;;;;2.10;0.68;;;;;;;;;;4966115;28;20230;-82
2022/09/21 12:41:38;;;;;;;0.70;0.35;;;;;;;;;;4964964;28;20234;-82
2022/09/21 12:44:10;;;;;;;1.13;0.40;;;;;;;;;;4955761;28;20243;-83
2022/09/21 12:46:41;;;;;;;1.60;0.50;;;;;;;;;;4965726;28;20235;-83
2022/09/21 12:49:13;;;;;;;1.27;0.60;;;;;;;;;;4970010;28;20230;-82
2022/09/21 12:51:43;;;;;;;2.22;0.50;;;;;;;;;;4969081;28;20306;-83
2022/09/21 12:54:18;;;;;;;0.90;0.43;;;;;;;;;;4961257;28;20258;-83
2022/09/21 12:56:50;;;;;;;0.90;0.40;;;;;;;;;;4963629;28;20213;-83
2022/09/21 12:59:23;;;;;;;0.80;0.57;;;;;;;;;;4965823;28;20223;-83
2022/09/21 13:01:52;;;;;;;0.93;0.43;;;;;;;;;;4964542;28;20206;-84
2022/09/21 13:04:37;;;;;;;0.90;0.40;;;;;;;;;;4967158;28;20227;-83
2022/09/21 13:07:28;;;;;;;1.45;0.50;;;;;;;;;;4952977;28;20218;-83
2022/09/21 13:09:58;;;;;;;0.82;0.40;;;;;;;;;;4928922;29;20835;-83
2022/09/21 13:12:26;;;;;;;1.52;0.55;;;;;;;;;;4925576;29;20259;-83
2022/09/21 13:15:00;;;;;;;1.15;0.65;;;;;;;;;;4921462;29;20813;-84
2022/09/21 13:17:30;;;;;;;2.58;0.50;;;;;;;;;;4928243;29;20207;-84
2022/09/21 13:19:59;;;;;;;1.38;0.50;;;;;;;;;;4922089;29;20322;-84
2022/09/21 13:22:32;;;;;;;1.17;0.50;;;;;;;;;;4918810;29;20291;-84
2022/09/21 13:25:02;;;;;;;0.93;0.70;;;;;;;;;;4923186;29;20287;-83
2022/09/21 13:27:47;;;;;;;0.60;0.50;;;;;;;;;;4923699;29;20200;-83
2022/09/21 13:30:31;;;;;;;0.60;0.50;;;;;;;;;;4924126;29;20227;-83
2022/09/21 13:32:58;;;;;;;2.00;0.70;;;;;;;;;;4926614;29;20376;-84
2022/09/21 13:35:44;;;;;;;0.95;0.50;;;;;;;;;;4912746;29;20708;-83
2022/09/21 13:38:24;;;;;;;0.90;0.60;;;;;;;;;;4927719;29;20263;-84
2022/09/21 13:40:58;;;;;;;1.02;0.60;;;;;;;;;;4931353;29;20223;-83
2022/09/21 13:43:53;;;;;;;1.13;0.50;;;;;;;;;;4926256;29;20262;-84
2022/09/21 13:46:39;;;;;;;0.50;0.43;;;;;;;;;;4926732;29;20214;-83
2022/09/21 13:49:16;;;;;;;1.45;0.60;;;;;;;;;;4958307;28;20250;-83
2022/09/21 13:51:51;;;;;;;2.55;0.60;;;;;;;;;;4960741;28;20291;-83
2022/09/21 13:54:20;;;;;;;1.60;0.60;;;;;;;;;;4962163;28;20288;-83
2022/09/21 13:56:57;;;;;;;1.65;0.70;;;;;;;;;;4970904;28;20233;-82
2022/09/21 13:59:26;;;;;;;1.95;0.60;;;;;;;;;;4966347;28;20657;-82
2022/09/21 14:01:54;;;;;;;1.00;0.60;;;;;;;;;;4967948;28;20274;-83
2022/09/21 14:04:25;;;;;;;1.42;0.70;;;;;;;;;;4956600;28;20209;-82
2022/09/21 14:06:53;;;;;;;2.92;0.70;;;;;;;;;;4968090;28;20646;-83
2022/09/21 14:09:23;;;;;;;1.70;0.50;;;;;;;;;;4953370;28;20238;-83
2022/09/21 14:11:58;;;;;;;6.68;1.00;;;;;;;;;;4959133;28;20274;-83
2022/09/21 14:14:28;;;;;;;1.65;0.50;;;;;;;;;;4962938;28;20211;-82
2022/09/21 14:16:57;;;;;;;1.70;0.60;;;;;;;;;;4967295;28;20286;-82
2022/09/21 14:19:42;;;;;;;1.60;0.68;;;;;;;;;;4964399;28;20202;-82
2022/09/21 14:22:25;;;;;;;1.70;0.60;;;;;;;;;;4966168;28;20401;-83
2022/09/21 14:25:17;;;;;;;1.23;0.63;;;;;;;;;;4961614;28;20679;-83
2022/09/21 14:27:46;;;;;;;1.40;0.70;;;;;;;;;;4964709;28;20230;-83
2022/09/21 14:30:18;;;;;;;1.55;0.50;;;;;;;;;;4958566;28;20282;-85
2022/09/21 14:32:47;;;;;;;2.22;0.50;;;;;;;;;;4962718;28;20239;-84
2022/09/21 14:35:17;;;;;;;2.20;0.80;;;;;;;;;;4966250;28;20242;-86
2022/09/21 14:37:47;;;;;;;1.00;0.68;;;;;;;;;;4955978;28;20282;-85
2022/09/21 14:40:19;;;;;;;1.50;0.60;;;;;;;;;;4967182;28;20309;-85
2022/09/21 14:42:48;;;;;;;1.15;0.70;;;;;;;;;;4969572;28;20214;-84
2022/09/21 14:45:18;;;;;;;1.25;0.68;;;;;;;;;;4971421;28;20199;-84
2022/09/21 14:47:55;;;;;;;1.75;0.77;;;;;;;;;;4971979;28;20229;-86
2022/09/21 14:50:26;;;;;;;1.45;0.73;;;;;;;;;;4966879;28;20681;-84
2022/09/21 14:53:17;;;;;;;2.47;0.73;;;;;;;;;;4963247;28;20223;-84
2022/09/21 14:55:52;;;;;;;2.17;0.70;;;;;;;;;;4958559;28;20286;-85
2022/09/21 14:58:33;;;;;;;1.45;0.80;;;;;;;;;;4967752;28;20301;-84
2022/09/21 15:01:15;;;;;;;2.13;0.80;;;;;;;;;;4971294;28;20310;-84
2022/09/21 15:03:51;;;;;;;0.80;0.60;;;;;;;;;;4970472;28;20282;-84
2022/09/21 15:12:08;;;;;;;1.67;1.00;;;;;;;;;;4966970;28;20206;-84